createdAt,value
2017-10-02T00:01:52.392Z,8.70
2017-10-02T00:04:19.869Z,8.60
2017-10-02T00:06:47.361Z,8.70
2017-10-02T00:09:14.825Z,8.80
2017-10-02T00:11:42.297Z,8.80
2017-10-02T00:14:09.785Z,8.80
2017-10-02T00:16:37.261Z,8.80
2017-10-02T00:19:04.728Z,8.90
2017-10-02T00:21:32.992Z,9.00
2017-10-02T00:24:00.464Z,9.00
2017-10-02T00:26:28.701Z,9.10
2017-10-02T00:28:56.192Z,9.00
2017-10-02T00:31:24.425Z,8.90
2017-10-02T00:33:51.896Z,8.90
2017-10-02T00:36:19.384Z,8.90
2017-10-02T00:38:47.617Z,8.90
2017-10-02T00:41:15.101Z,8.80
2017-10-02T00:43:43.365Z,8.90
2017-10-02T00:46:10.829Z,8.90
2017-10-02T00:48:38.293Z,9.00
2017-10-02T00:51:05.802Z,9.00
2017-10-02T00:53:33.268Z,9.00
2017-10-02T00:56:00.738Z,9.10
2017-10-02T00:58:28.998Z,9.10
2017-10-02T01:00:56.469Z,9.10
2017-10-02T01:03:23.941Z,9.10
2017-10-02T01:05:51.897Z,9.10
2017-10-02T01:08:19.827Z,9.10
2017-10-02T01:10:47.299Z,9.10
2017-10-02T01:13:14.789Z,9.20
2017-10-02T01:15:42.265Z,9.10
2017-10-02T01:18:10.788Z,9.00
2017-10-02T01:20:38.278Z,9.00
2017-10-02T01:23:05.752Z,9.00
2017-10-02T01:25:33.217Z,9.10
2017-10-02T01:28:01.474Z,9.10
2017-10-02T01:30:28.965Z,9.10
2017-10-02T01:32:56.438Z,9.10
2017-10-02T01:35:23.925Z,9.20
2017-10-02T01:37:51.388Z,9.20
2017-10-02T01:40:18.857Z,9.30
2017-10-02T01:42:46.344Z,9.20
2017-10-02T01:45:14.577Z,9.30
2017-10-02T01:47:42.052Z,9.30
2017-10-02T01:50:09.773Z,9.30
2017-10-02T01:52:37.246Z,9.30
2017-10-02T01:55:04.730Z,9.30
2017-10-02T01:57:32.241Z,9.40
2017-10-02T01:59:59.709Z,9.40
2017-10-02T02:02:27.178Z,9.40
2017-10-02T02:04:54.685Z,9.30
2017-10-02T02:07:22.917Z,9.30
2017-10-02T02:09:50.385Z,9.30
2017-10-02T02:12:17.881Z,9.30
2017-10-02T02:14:45.348Z,9.20
2017-10-02T02:17:12.818Z,9.20
2017-10-02T02:19:40.309Z,9.20
2017-10-02T02:22:07.788Z,9.10
2017-10-02T02:24:35.261Z,9.10
2017-10-02T02:27:03.520Z,9.10
2017-10-02T02:29:30.981Z,9.10
2017-10-02T02:31:58.694Z,9.10
2017-10-02T02:34:26.185Z,9.10
2017-10-02T02:36:53.661Z,9.10
2017-10-02T02:39:21.900Z,9.00
2017-10-02T02:41:49.394Z,9.00
2017-10-02T02:44:17.633Z,9.00
2017-10-02T02:46:45.106Z,9.00
2017-10-02T02:49:12.601Z,8.90
2017-10-02T02:51:40.074Z,8.90
2017-10-02T02:54:07.544Z,8.80
2017-10-02T02:56:35.037Z,8.80
2017-10-02T02:59:02.505Z,8.70
2017-10-02T03:01:30.213Z,8.70
2017-10-02T03:03:57.709Z,8.80
2017-10-02T03:06:25.181Z,8.80
2017-10-02T03:08:52.649Z,8.90
2017-10-02T03:11:20.897Z,9.00
2017-10-02T03:13:48.366Z,8.90
2017-10-02T03:16:15.833Z,9.00
2017-10-02T03:18:44.092Z,9.00
2017-10-02T03:21:11.565Z,9.00
2017-10-02T03:23:39.805Z,9.00
2017-10-02T03:26:07.292Z,9.10
2017-10-02T03:28:35.530Z,9.00
2017-10-02T03:31:03.002Z,9.00
2017-10-02T03:33:30.498Z,9.00
2017-10-02T03:35:58.732Z,9.00
2017-10-02T03:38:26.205Z,8.90
2017-10-02T03:40:53.693Z,8.90
2017-10-02T03:43:21.156Z,8.90
2017-10-02T03:45:48.629Z,8.90
2017-10-02T03:48:16.123Z,8.90
2017-10-02T03:50:43.643Z,8.90
2017-10-02T03:53:11.125Z,8.90
2017-10-02T03:55:38.625Z,8.90
2017-10-02T03:58:06.872Z,8.90
2017-10-02T04:00:34.341Z,8.90
2017-10-02T04:03:01.834Z,8.90
2017-10-02T04:05:29.309Z,8.90
2017-10-02T04:07:56.777Z,8.90
2017-10-02T04:10:24.268Z,8.90
2017-10-02T04:12:51.741Z,8.90
2017-10-02T04:15:19.982Z,8.90
2017-10-02T04:17:47.477Z,8.80
2017-10-02T04:20:15.708Z,8.80
2017-10-02T04:22:43.189Z,8.70
2017-10-02T04:25:10.677Z,8.80
2017-10-02T04:27:38.913Z,8.70
2017-10-02T04:30:06.380Z,8.70
2017-10-02T04:32:33.873Z,8.70
2017-10-02T04:35:01.346Z,8.60
2017-10-02T04:37:28.809Z,8.60
2017-10-02T04:39:56.301Z,8.60
2017-10-02T04:42:23.777Z,8.50
2017-10-02T04:44:52.016Z,8.50
2017-10-02T04:47:19.517Z,8.50
2017-10-02T04:49:48.948Z,8.60
2017-10-02T04:52:16.464Z,8.60
2017-10-02T04:54:43.949Z,8.60
2017-10-02T04:57:11.419Z,8.70
2017-10-02T04:59:38.897Z,8.70
2017-10-02T05:02:06.393Z,8.70
2017-10-02T05:04:34.638Z,8.70
2017-10-02T05:07:02.104Z,8.70
2017-10-02T05:09:29.601Z,8.60
2017-10-02T05:11:57.833Z,8.70
2017-10-02T05:14:25.569Z,8.70
2017-10-02T05:16:53.065Z,8.70
2017-10-02T05:19:20.541Z,8.70
2017-10-02T05:21:48.784Z,8.80
2017-10-02T05:24:16.281Z,8.80
2017-10-02T05:26:44.517Z,8.90
2017-10-02T05:29:12.253Z,8.90
2017-10-02T05:31:39.745Z,9.00
2017-10-02T05:34:07.226Z,9.00
2017-10-02T05:36:35.460Z,9.00
2017-10-02T05:39:02.957Z,9.00
2017-10-02T05:41:31.197Z,9.10
2017-10-02T05:43:58.662Z,9.10
2017-10-02T05:46:26.153Z,9.20
2017-10-02T05:48:54.389Z,9.50
2017-10-02T05:51:21.866Z,9.50
2017-10-02T05:53:49.356Z,9.60
2017-10-02T05:56:16.829Z,9.80
2017-10-02T05:58:45.529Z,10.10
2017-10-02T06:01:13.021Z,10.00
2017-10-02T06:03:40.495Z,10.20
2017-10-02T06:06:08.742Z,10.50
2017-10-02T06:08:36.232Z,10.50
2017-10-02T06:11:03.721Z,10.60
2017-10-02T06:13:31.211Z,10.60
2017-10-02T06:15:58.705Z,10.70
2017-10-02T06:18:26.941Z,10.90
2017-10-02T06:20:54.413Z,10.90
2017-10-02T06:23:21.901Z,11.00
2017-10-02T06:25:50.137Z,11.00
2017-10-02T06:28:17.608Z,10.90
2017-10-02T06:30:45.097Z,11.00
2017-10-02T06:33:12.582Z,11.20
2017-10-02T06:35:40.064Z,11.30
2017-10-02T06:38:07.553Z,11.40
2017-10-02T06:40:35.793Z,11.60
2017-10-02T06:43:03.265Z,11.60
2017-10-02T06:45:30.757Z,11.70
2017-10-02T06:47:58.993Z,11.90
2017-10-02T06:50:26.461Z,11.90
2017-10-02T06:52:53.957Z,12.00
2017-10-02T06:55:21.434Z,12.10
2017-10-02T06:57:48.909Z,12.20
2017-10-02T07:00:16.648Z,12.20
2017-10-02T07:02:44.117Z,12.20
2017-10-02T07:05:11.589Z,12.30
2017-10-02T07:07:39.085Z,12.40
2017-10-02T07:10:07.325Z,12.70
2017-10-02T07:12:35.932Z,12.90
2017-10-02T07:15:03.428Z,12.80
2017-10-02T07:17:30.934Z,12.90
2017-10-02T07:19:58.410Z,13.00
2017-10-02T07:22:26.669Z,13.30
2017-10-02T07:24:54.143Z,13.20
2017-10-02T07:27:22.381Z,13.60
2017-10-02T07:29:49.878Z,13.50
2017-10-02T07:32:18.117Z,13.70
2017-10-02T07:34:45.613Z,13.70
2017-10-02T07:37:13.865Z,13.70
2017-10-02T07:39:41.337Z,13.60
2017-10-02T07:42:09.572Z,13.70
2017-10-02T07:44:37.061Z,13.70
2017-10-02T07:47:04.528Z,13.80
2017-10-02T07:49:32.770Z,13.80
2017-10-02T07:52:00.265Z,13.70
2017-10-02T07:54:28.506Z,13.80
2017-10-02T07:56:55.985Z,13.80
2017-10-02T07:59:23.480Z,13.80
2017-10-02T08:01:50.950Z,13.90
2017-10-02T08:04:18.718Z,13.90
2017-10-02T08:06:46.229Z,13.90
2017-10-02T08:09:14.471Z,14.00
2017-10-02T08:11:41.941Z,14.00
2017-10-02T08:14:09.437Z,14.10
2017-10-02T08:16:36.917Z,14.00
2017-10-02T08:19:04.390Z,14.00
2017-10-02T08:21:31.901Z,14.10
2017-10-02T08:23:59.394Z,14.10
2017-10-02T08:26:26.865Z,14.20
2017-10-02T08:28:54.357Z,14.00
2017-10-02T08:31:22.069Z,14.10
2017-10-02T08:33:50.308Z,13.80
2017-10-02T08:36:18.565Z,13.60
2017-10-02T08:38:46.034Z,13.60
2017-10-02T08:41:14.269Z,13.70
2017-10-02T08:43:41.758Z,13.60
2017-10-02T08:46:09.229Z,13.70
2017-10-02T08:48:37.464Z,14.00
2017-10-02T08:51:04.960Z,14.00
2017-10-02T08:53:33.208Z,14.20
2017-10-02T08:56:00.680Z,14.20
2017-10-02T08:58:28.173Z,14.10
2017-10-02T09:00:55.645Z,14.20
2017-10-02T09:03:23.122Z,14.30
2017-10-02T09:05:50.616Z,14.40
2017-10-02T09:08:18.853Z,14.30
2017-10-02T09:10:46.325Z,14.30
2017-10-02T09:13:14.054Z,14.40
2017-10-02T09:15:41.529Z,14.50
2017-10-02T09:18:09.000Z,14.70
2017-10-02T09:20:36.493Z,14.80
2017-10-02T09:23:04.733Z,14.50
2017-10-02T09:25:32.461Z,14.50
2017-10-02T09:27:59.953Z,14.60
2017-10-02T09:30:27.421Z,14.70
2017-10-02T09:32:54.894Z,15.00
2017-10-02T09:35:23.149Z,15.10
2017-10-02T09:37:50.626Z,15.10
2017-10-02T09:40:18.878Z,15.40
2017-10-02T09:42:46.376Z,15.30
2017-10-02T09:45:13.849Z,15.50
2017-10-02T09:47:41.325Z,15.50
2017-10-02T09:50:08.814Z,15.70
2017-10-02T09:52:36.286Z,15.60
2017-10-02T09:55:04.521Z,15.60
2017-10-02T09:57:32.037Z,15.60
2017-10-02T09:59:59.513Z,15.50
2017-10-02T10:02:26.985Z,15.60
2017-10-02T10:04:54.477Z,15.50
2017-10-02T10:07:21.946Z,15.60
2017-10-02T10:09:50.182Z,15.70
2017-10-02T10:12:17.677Z,15.70
2017-10-02T10:14:45.913Z,15.80
2017-10-02T10:17:13.393Z,15.80
2017-10-02T10:19:40.884Z,15.80
2017-10-02T10:22:09.125Z,15.90
2017-10-02T10:24:36.597Z,15.90
2017-10-02T10:27:04.095Z,16.00
2017-10-02T10:29:31.564Z,16.10
2017-10-02T10:31:59.038Z,16.00
2017-10-02T10:34:26.529Z,16.20
2017-10-02T10:36:54.770Z,16.30
2017-10-02T10:39:22.241Z,16.30
2017-10-02T10:41:49.965Z,16.20
2017-10-02T10:44:17.437Z,15.90
2017-10-02T10:46:44.908Z,15.80
2017-10-02T10:49:12.645Z,15.80
2017-10-02T10:51:40.117Z,15.70
2017-10-02T10:54:07.589Z,15.60
2017-10-02T10:56:35.082Z,15.60
2017-10-02T10:59:03.321Z,15.50
2017-10-02T11:01:30.809Z,15.50
2017-10-02T11:03:59.074Z,15.40
2017-10-02T11:06:26.545Z,15.40
2017-10-02T11:08:55.061Z,15.30
2017-10-02T11:11:22.556Z,15.30
2017-10-02T11:13:50.029Z,15.30
2017-10-02T11:16:18.268Z,15.40
2017-10-02T11:18:45.759Z,15.40
2017-10-02T11:21:13.227Z,15.50
2017-10-02T11:23:41.461Z,15.60
2017-10-02T11:26:09.721Z,15.70
2017-10-02T11:28:37.192Z,15.70
2017-10-02T11:31:05.429Z,15.70
2017-10-02T11:33:32.921Z,15.70
2017-10-02T11:36:00.397Z,15.80
2017-10-02T11:38:27.873Z,15.90
2017-10-02T11:40:56.134Z,15.80
2017-10-02T11:43:23.600Z,15.80
2017-10-02T11:45:51.068Z,16.00
2017-10-02T11:48:19.325Z,16.00
2017-10-02T11:50:46.794Z,16.00
2017-10-02T11:53:15.037Z,16.30
2017-10-02T11:55:42.529Z,16.30
2017-10-02T11:58:10.765Z,16.30
2017-10-02T12:00:38.235Z,16.30
2017-10-02T12:03:05.729Z,16.30
2017-10-02T12:05:33.965Z,16.30
2017-10-02T12:08:01.437Z,16.30
2017-10-02T12:10:28.929Z,16.50
2017-10-02T12:12:56.396Z,16.70
2017-10-02T12:15:24.173Z,16.70
2017-10-02T12:17:51.665Z,16.70
2017-10-02T12:20:19.133Z,16.80
2017-10-02T12:22:46.604Z,16.80
2017-10-02T12:25:14.861Z,16.80
2017-10-02T12:27:42.336Z,16.80
2017-10-02T12:30:10.861Z,16.80
2017-10-02T12:32:38.358Z,16.80
2017-10-02T12:35:05.834Z,16.90
2017-10-02T12:37:34.070Z,17.00
2017-10-02T12:40:01.565Z,17.00
2017-10-02T12:42:29.815Z,17.10
2017-10-02T12:44:57.330Z,17.10
2017-10-02T12:47:24.821Z,17.10
2017-10-02T12:49:52.289Z,17.20
2017-10-02T12:52:19.769Z,17.20
2017-10-02T12:54:48.028Z,17.30
2017-10-02T12:57:15.497Z,17.30
2017-10-02T12:59:43.744Z,17.50
2017-10-02T13:02:11.235Z,17.50
2017-10-02T13:04:39.474Z,17.60
2017-10-02T13:07:06.950Z,17.60
2017-10-02T13:09:34.446Z,17.70
2017-10-02T13:12:01.917Z,17.70
2017-10-02T13:14:29.685Z,17.70
2017-10-02T13:16:57.177Z,17.70
2017-10-02T13:19:24.649Z,17.70
2017-10-02T13:21:52.117Z,17.70
2017-10-02T13:24:20.373Z,17.90
2017-10-02T13:26:47.857Z,17.80
2017-10-02T13:29:16.102Z,18.10
2017-10-02T13:31:43.597Z,18.10
2017-10-02T13:34:11.070Z,18.30
2017-10-02T13:36:38.545Z,18.30
2017-10-02T13:39:06.037Z,18.30
2017-10-02T13:41:33.508Z,18.30
2017-10-02T13:44:01.970Z,18.30
2017-10-02T13:46:29.461Z,18.30
2017-10-02T13:48:57.697Z,18.30
2017-10-02T13:51:25.170Z,18.30
2017-10-02T13:53:52.664Z,18.20
2017-10-02T13:56:20.137Z,18.30
2017-10-02T13:58:47.609Z,18.30
2017-10-02T14:01:15.128Z,18.40
2017-10-02T14:03:42.605Z,18.40
2017-10-02T14:06:10.082Z,18.30
2017-10-02T14:08:37.578Z,18.30
2017-10-02T14:11:05.821Z,18.20
2017-10-02T14:13:33.297Z,18.20
2017-10-02T14:16:00.794Z,18.20
2017-10-02T14:18:28.577Z,18.10
2017-10-02T14:20:56.053Z,18.10
2017-10-02T14:23:23.545Z,18.10
2017-10-02T14:25:51.785Z,18.00
2017-10-02T14:28:19.256Z,17.90
2017-10-02T14:30:46.751Z,17.90
2017-10-02T14:33:14.989Z,17.70
2017-10-02T14:35:42.465Z,17.70
2017-10-02T14:38:09.958Z,17.60
2017-10-02T14:40:37.438Z,17.50
2017-10-02T14:43:04.909Z,17.40
2017-10-02T14:45:32.401Z,17.30
2017-10-02T14:48:00.637Z,17.30
2017-10-02T14:50:28.109Z,17.30
2017-10-02T14:52:55.605Z,17.40
2017-10-02T14:55:23.392Z,17.40
2017-10-02T14:57:50.866Z,17.30
2017-10-02T15:00:18.393Z,17.30
2017-10-02T15:02:45.869Z,17.30
2017-10-02T15:05:13.342Z,17.30
2017-10-02T15:07:40.847Z,17.20
2017-10-02T15:10:09.093Z,17.10
2017-10-02T15:12:36.562Z,17.10
2017-10-02T15:15:04.053Z,17.10
2017-10-02T15:17:31.836Z,17.20
2017-10-02T15:19:59.310Z,17.20
2017-10-02T15:22:27.575Z,17.20
2017-10-02T15:24:55.051Z,17.20
2017-10-02T15:27:22.522Z,17.00
2017-10-02T15:29:50.018Z,16.80
2017-10-02T15:32:17.494Z,16.80
2017-10-02T15:34:44.964Z,16.80
2017-10-02T15:37:12.453Z,16.80
2017-10-02T15:39:39.929Z,16.70
2017-10-02T15:42:09.216Z,16.50
2017-10-02T15:44:37.567Z,16.50
2017-10-02T15:47:06.310Z,16.50
2017-10-02T15:49:33.794Z,16.50
2017-10-02T15:52:01.301Z,16.60
2017-10-02T15:54:28.776Z,16.70
2017-10-02T15:56:57.017Z,16.70
2017-10-02T15:59:24.513Z,16.70
2017-10-02T16:01:51.985Z,16.60
2017-10-02T16:04:19.621Z,16.60
2017-10-02T16:06:47.876Z,16.50
2017-10-02T16:09:15.353Z,16.50
2017-10-02T16:11:43.602Z,16.50
2017-10-02T16:14:11.097Z,16.50
2017-10-02T16:16:38.565Z,16.50
2017-10-02T16:19:06.038Z,16.50
2017-10-02T16:21:33.529Z,16.50
2017-10-02T16:24:01.001Z,16.50
2017-10-02T16:26:28.469Z,16.40
2017-10-02T16:28:56.724Z,16.40
2017-10-02T16:31:24.238Z,16.40
2017-10-02T16:33:51.724Z,16.50
2017-10-02T16:36:19.217Z,16.50
2017-10-02T16:38:47.483Z,16.40
2017-10-02T16:41:15.727Z,16.20
2017-10-02T16:43:43.306Z,16.20
2017-10-02T16:46:10.801Z,16.30
2017-10-02T16:48:38.286Z,16.30
2017-10-02T16:51:05.777Z,16.40
2017-10-02T16:53:33.249Z,16.40
2017-10-02T16:56:01.493Z,16.40
2017-10-02T16:58:28.993Z,16.40
2017-10-02T17:00:57.233Z,16.30
2017-10-02T17:03:24.709Z,16.30
2017-10-02T17:05:52.521Z,16.30
2017-10-02T17:08:19.992Z,16.30
2017-10-02T17:10:47.681Z,16.20
2017-10-02T17:13:15.405Z,16.20
2017-10-02T17:15:42.877Z,16.20
2017-10-02T17:18:10.357Z,16.20
2017-10-02T17:20:37.869Z,16.20
2017-10-02T17:23:05.357Z,16.20
2017-10-02T17:25:32.829Z,16.20
2017-10-02T17:28:00.330Z,16.20
2017-10-02T17:30:27.810Z,16.20
2017-10-02T17:32:55.289Z,16.20
2017-10-02T17:35:22.849Z,16.10
2017-10-02T17:37:50.326Z,16.00
2017-10-02T17:40:17.808Z,16.10
2017-10-02T17:42:46.068Z,16.10
2017-10-02T17:45:14.349Z,16.00
2017-10-02T17:47:42.589Z,15.90
2017-10-02T17:50:10.089Z,15.90
2017-10-02T17:52:38.341Z,15.90
2017-10-02T17:55:05.821Z,15.90
2017-10-02T17:57:34.086Z,15.90
2017-10-02T18:00:02.330Z,15.80
2017-10-02T18:02:29.809Z,15.80
2017-10-02T18:04:57.306Z,15.80
2017-10-02T18:07:24.785Z,15.80
2017-10-02T18:09:52.265Z,15.80
2017-10-02T18:12:19.763Z,15.70
2017-10-02T18:14:47.233Z,15.70
2017-10-02T18:17:14.705Z,15.70
2017-10-02T18:19:42.202Z,15.80
2017-10-02T18:22:09.681Z,15.80
2017-10-02T18:24:37.962Z,15.80
2017-10-02T18:27:05.478Z,15.80
2017-10-02T18:29:33.216Z,15.80
2017-10-02T18:32:00.693Z,15.90
2017-10-02T18:34:28.189Z,15.90
2017-10-02T18:36:55.681Z,15.90
2017-10-02T18:39:23.157Z,15.90
2017-10-02T18:41:50.649Z,15.90
2017-10-02T18:44:18.117Z,15.90
2017-10-02T18:46:45.618Z,15.90
2017-10-02T18:49:13.111Z,15.90
2017-10-02T18:51:40.937Z,15.90
2017-10-02T18:54:08.409Z,15.80
2017-10-02T18:56:35.916Z,15.80
2017-10-02T18:59:04.161Z,15.70
2017-10-02T19:01:33.253Z,15.70
2017-10-02T19:04:00.752Z,15.70
2017-10-02T19:06:28.993Z,15.80
2017-10-02T19:08:56.479Z,15.80
2017-10-02T19:11:24.751Z,15.80
2017-10-02T19:13:53.001Z,15.90
2017-10-02T19:16:20.477Z,15.80
2017-10-02T19:18:48.753Z,15.90
2017-10-02T19:21:16.997Z,15.90
2017-10-02T19:23:44.543Z,15.90
2017-10-02T19:26:12.049Z,15.90
2017-10-02T19:28:40.348Z,15.80
2017-10-02T19:31:07.891Z,15.80
2017-10-02T19:33:36.157Z,15.60
2017-10-02T19:36:04.400Z,15.60
2017-10-02T19:38:31.874Z,15.60
2017-10-02T19:40:59.369Z,15.70
2017-10-02T19:43:26.841Z,15.70
2017-10-02T19:45:54.317Z,15.70
2017-10-02T19:48:21.813Z,15.70
2017-10-02T19:50:49.288Z,15.60
2017-10-02T19:53:16.829Z,15.70
2017-10-02T19:55:45.208Z,15.80
2017-10-02T19:58:12.678Z,15.70
2017-10-02T20:00:40.965Z,15.80
2017-10-02T20:03:08.536Z,15.80
2017-10-02T20:05:36.249Z,15.80
2017-10-02T20:08:03.729Z,15.80
2017-10-02T20:10:32.009Z,15.70
2017-10-02T20:13:00.245Z,15.80
2017-10-02T20:15:27.725Z,15.70
2017-10-02T20:17:55.231Z,15.80
2017-10-02T20:20:22.705Z,15.80
2017-10-02T20:22:50.953Z,15.80
2017-10-02T20:25:18.468Z,15.80
2017-10-02T20:27:45.948Z,15.80
2017-10-02T20:30:14.193Z,15.80
2017-10-02T20:32:41.696Z,15.70
2017-10-02T20:35:09.164Z,15.80
2017-10-02T20:37:36.638Z,15.70
2017-10-02T20:40:04.133Z,15.70
2017-10-02T20:42:31.609Z,15.60
2017-10-02T20:44:59.844Z,15.30
2017-10-02T20:47:27.332Z,15.20
2017-10-02T20:49:55.572Z,15.00
2017-10-02T20:52:23.045Z,15.00
2017-10-02T20:54:50.541Z,15.00
2017-10-02T20:57:18.033Z,14.90
2017-10-02T20:59:45.520Z,14.80
2017-10-02T21:02:13.266Z,14.80
2017-10-02T21:04:40.748Z,14.70
2017-10-02T21:07:08.224Z,14.70
2017-10-02T21:09:36.485Z,14.60
2017-10-02T21:12:04.729Z,14.70
2017-10-02T21:14:32.201Z,14.70
2017-10-02T21:16:59.697Z,14.70
2017-10-02T21:19:27.175Z,14.60
2017-10-02T21:21:54.651Z,14.60
2017-10-02T21:24:22.911Z,14.60
2017-10-02T21:26:50.387Z,14.60
2017-10-02T21:29:17.865Z,14.60
2017-10-02T21:31:45.930Z,14.60
2017-10-02T21:34:13.509Z,14.60
2017-10-02T21:36:41.756Z,14.70
2017-10-02T21:39:09.249Z,14.60
2017-10-02T21:41:37.492Z,14.70
2017-10-02T21:44:04.961Z,14.60
2017-10-02T21:46:32.449Z,14.60
2017-10-02T21:49:00.693Z,14.70
2017-10-02T21:51:28.173Z,14.70
2017-10-02T21:53:56.442Z,14.70
2017-10-02T21:56:24.680Z,14.70
2017-10-02T21:58:52.158Z,14.70
2017-10-02T22:01:19.653Z,14.70
2017-10-02T22:03:47.133Z,14.60
2017-10-02T22:06:14.723Z,14.70
2017-10-02T22:08:42.216Z,14.70
2017-10-02T22:11:10.501Z,14.70
2017-10-02T22:13:37.974Z,14.70
2017-10-02T22:16:05.465Z,14.70
2017-10-02T22:18:32.943Z,14.70
2017-10-02T22:21:00.429Z,14.70
2017-10-02T22:23:28.217Z,14.70
2017-10-02T22:25:55.689Z,14.70
2017-10-02T22:28:23.164Z,14.70
2017-10-02T22:30:50.659Z,14.70
2017-10-02T22:33:18.901Z,14.70
2017-10-02T22:35:46.378Z,14.60
2017-10-02T22:38:14.637Z,14.60
2017-10-02T22:40:42.109Z,14.60
2017-10-02T22:43:10.349Z,14.70
2017-10-02T22:45:37.841Z,14.60
2017-10-02T22:48:06.081Z,14.60
2017-10-02T22:50:33.550Z,14.60
2017-10-02T22:53:01.041Z,14.60
2017-10-02T22:55:29.562Z,14.60
2017-10-02T22:57:57.034Z,14.60
2017-10-02T23:00:24.525Z,14.70
2017-10-02T23:02:52.761Z,14.70
2017-10-02T23:05:20.236Z,14.70
2017-10-02T23:07:47.724Z,14.60
2017-10-02T23:10:15.961Z,14.50
2017-10-02T23:12:43.434Z,14.50
2017-10-02T23:15:10.933Z,14.50
2017-10-02T23:17:38.405Z,14.60
2017-10-02T23:20:05.877Z,14.60
2017-10-02T23:22:33.368Z,14.60
2017-10-02T23:25:00.837Z,14.50
2017-10-02T23:27:29.079Z,14.50
2017-10-02T23:29:56.569Z,14.50
2017-10-02T23:32:24.813Z,14.60
2017-10-02T23:34:52.301Z,14.60
2017-10-02T23:37:20.561Z,14.60
2017-10-02T23:39:48.041Z,14.60
2017-10-02T23:42:16.276Z,14.60
2017-10-02T23:44:43.768Z,14.60
2017-10-02T23:47:12.008Z,14.70
2017-10-02T23:49:39.485Z,14.60
2017-10-02T23:52:06.977Z,14.70
2017-10-02T23:54:34.449Z,14.60
2017-10-02T23:57:01.920Z,14.40
2017-10-02T23:59:29.440Z,14.20
